Time;durP1;ratioP1;P1;durP2;ratioP2;P2;SDS_P1;SDS_P2;PMS_P1;PMS_P2;Temp;Humidity;BMP_temperature;BMP_pressure;BME280_temperature;BME280_humidity;BME280_pressure;Samples;Min_cycle;Max_cycle;Signal;HPM_P1;HPM_P2
2024/04/17 00:00:09;;;;;;;30.05;1.58;;;10.50;95.80;;;;;;4195448;28;20044;-63
2024/04/17 00:02:10;;;;;;;1.48;0.28;;;10.40;95.70;;;;;;4195161;28;20509;-63
2024/04/17 00:04:12;;;;;;;0.52;0.35;;;10.40;95.80;;;;;;4195537;28;20048;-62
2024/04/17 00:06:13;;;;;;;1.15;0.32;;;10.50;95.70;;;;;;4191517;28;20040;-63
2024/04/17 00:08:15;;;;;;;2.58;1.05;;;10.40;95.80;;;;;;4186236;28;20045;-66
2024/04/17 00:10:17;;;;;;;0.28;0.20;;;10.40;95.60;;;;;;4195476;28;20119;-64
2024/04/17 00:12:18;;;;;;;0.40;0.40;;;10.30;95.50;;;;;;4184795;28;20476;-63
2024/04/17 00:14:20;;;;;;;0.52;0.20;;;10.30;95.80;;;;;;4194085;28;20099;-64
2024/04/17 00:16:21;;;;;;;0.70;0.30;;;10.20;95.90;;;;;;4193859;28;20056;-63
2024/04/17 00:18:22;;;;;;;0.47;0.17;;;10.20;95.90;;;;;;4184832;28;20057;-63
2024/04/17 00:20:23;;;;;;;0.90;0.38;;;10.20;95.90;;;;;;4195710;28;20044;-65
2024/04/17 00:22:24;;;;;;;4.13;0.35;;;10.20;95.80;;;;;;4194780;28;20048;-66
2024/04/17 00:24:27;;;;;;;0.20;0.20;;;10.10;95.90;;;;;;4195063;28;20094;-63
2024/04/17 00:26:28;;;;;;;0.90;0.38;;;10.20;96.00;;;;;;4193848;28;20450;-62
2024/04/17 00:28:29;;;;;;;0.35;0.10;;;10.20;95.70;;;;;;4184014;28;20040;-62
2024/04/17 00:30:30;;;;;;;1.23;0.30;;;10.10;95.80;;;;;;4195266;28;20052;-63
2024/04/17 00:32:32;;;;;;;0.95;0.43;;;10.10;95.80;;;;;;4194778;28;20048;-64
2024/04/17 00:34:33;;;;;;;3.47;0.20;;;10.10;95.60;;;;;;4184060;28;20478;-62
2024/04/17 00:36:34;;;;;;;2.17;0.28;;;10.10;95.90;;;;;;4181593;28;20053;-63
2024/04/17 00:38:35;;;;;;;1.80;0.60;;;10.00;95.90;;;;;;4176336;28;20491;-62
2024/04/17 00:40:38;;;;;;;0.43;0.43;;;10.10;96.00;;;;;;4182050;28;20063;-62
2024/04/17 00:42:39;;;;;;;1.40;0.98;;;10.10;96.00;;;;;;4191050;28;20060;-63
2024/04/17 00:44:40;;;;;;;0.20;0.20;;;10.00;95.80;;;;;;4189115;28;20087;-63
2024/04/17 00:46:42;;;;;;;1.50;0.30;;;10.00;95.80;;;;;;4181926;28;20053;-63
2024/04/17 00:48:43;;;;;;;0.82;0.47;;;10.00;96.00;;;;;;4193877;28;20118;-63
2024/04/17 00:50:47;;;;;;;1.58;0.20;;;10.00;95.90;;;;;;4180924;28;20128;-63
2024/04/17 00:52:48;;;;;;;0.80;0.20;;;10.00;96.00;;;;;;4184937;28;20099;-62
2024/04/17 00:54:50;;;;;;;0.75;0.30;;;10.00;96.00;;;;;;4198081;28;20048;-63
2024/04/17 00:56:53;;;;;;;0.50;0.17;;;9.90;95.90;;;;;;4181644;28;20045;-61
2024/04/17 00:58:55;;;;;;;2.35;0.30;;;9.90;96.30;;;;;;4192744;28;20160;-63
2024/04/17 01:00:56;;;;;;;1.70;0.75;;;9.90;96.10;;;;;;4182358;28;20468;-63
2024/04/17 01:02:57;;;;;;;0.80;0.20;;;9.80;96.10;;;;;;4182967;28;20118;-63
2024/04/17 01:04:58;;;;;;;0.20;0.10;;;9.80;96.20;;;;;;4191287;28;20049;-62
2024/04/17 01:06:59;;;;;;;2.30;0.82;;;9.80;96.20;;;;;;4164945;28;20079;-63
2024/04/17 01:09:00;;;;;;;1.80;0.30;;;9.80;96.20;;;;;;4190318;28;20044;-62
2024/04/17 01:11:02;;;;;;;0.10;0.10;;;9.80;96.50;;;;;;4184373;28;20045;-63
2024/04/17 01:13:05;;;;;;;1.23;0.65;;;9.70;96.30;;;;;;4183172;28;20127;-62
2024/04/17 01:15:09;;;;;;;0.63;0.40;;;9.70;96.50;;;;;;4192576;28;20037;-65
2024/04/17 01:17:11;;;;;;;0.60;0.35;;;9.70;96.30;;;;;;4181704;28;20049;-63
2024/04/17 01:19:13;;;;;;;0.68;0.32;;;9.70;96.60;;;;;;4188992;28;20078;-63
2024/04/17 01:21:16;;;;;;;2.97;0.30;;;9.70;96.40;;;;;;4197649;28;20413;-63
2024/04/17 01:23:17;;;;;;;0.63;0.32;;;9.70;96.30;;;;;;4195482;28;20395;-63
2024/04/17 01:25:19;;;;;;;0.20;0.20;;;9.70;96.50;;;;;;4175611;28;20408;-63
2024/04/17 01:27:20;;;;;;;1.58;0.40;;;9.60;96.40;;;;;;4180822;28;20045;-62
2024/04/17 01:29:22;;;;;;;0.40;0.40;;;9.70;96.60;;;;;;4187522;28;20398;-64
2024/04/17 01:31:23;;;;;;;0.68;0.30;;;9.60;96.60;;;;;;4186576;28;20049;-63
2024/04/17 01:33:24;;;;;;;2.53;0.60;;;9.60;96.70;;;;;;4181196;28;20450;-63
2024/04/17 01:35:25;;;;;;;1.40;0.55;;;9.60;96.80;;;;;;4191993;28;20486;-63
2024/04/17 01:37:26;;;;;;;2.90;0.30;;;9.50;96.70;;;;;;4180818;28;20040;-62
2024/04/17 01:39:27;;;;;;;1.85;0.20;;;9.50;96.50;;;;;;4177595;28;20041;-62
2024/04/17 01:41:30;;;;;;;2.53;0.50;;;9.50;96.90;;;;;;4205763;28;20056;-63
2024/04/17 01:43:32;;;;;;;0.20;0.20;;;9.50;96.80;;;;;;4197216;28;20052;-62
2024/04/17 01:45:33;;;;;;;0.65;0.38;;;9.50;96.80;;;;;;4185148;28;20053;-63
2024/04/17 01:47:35;;;;;;;1.20;0.73;;;9.50;96.70;;;;;;4196066;28;20052;-62
2024/04/17 01:49:36;;;;;;;0.68;0.20;;;9.50;96.70;;;;;;4192699;28;20040;-61
2024/04/17 01:51:37;;;;;;;0.20;0.20;;;9.50;96.90;;;;;;4190063;28;20045;-62
2024/04/17 01:53:38;;;;;;;0.28;0.28;;;9.40;96.70;;;;;;4180625;28;20535;-62
2024/04/17 01:55:39;;;;;;;1.02;0.93;;;9.50;97.10;;;;;;4190740;28;20154;-61
2024/04/17 01:57:42;;;;;;;0.13;0.13;;;9.50;96.90;;;;;;4213781;28;20528;-61
2024/04/17 01:59:43;;;;;;;1.13;0.40;;;9.50;96.90;;;;;;4195673;28;20044;-62
2024/04/17 02:01:45;;;;;;;1.13;0.47;;;9.50;97.00;;;;;;4185591;28;20048;-63
2024/04/17 02:03:48;;;;;;;1.60;0.20;;;9.40;97.00;;;;;;4197019;28;20529;-63
2024/04/17 02:05:49;;;;;;;1.77;1.05;;;9.40;96.90;;;;;;4171896;28;20431;-62
2024/04/17 02:07:50;;;;;;;0.20;0.13;;;9.40;96.90;;;;;;4193318;28;20126;-63
2024/04/17 02:09:53;;;;;;;0.45;0.25;;;9.50;97.20;;;;;;4195582;28;20049;-63
2024/04/17 02:11:55;;;;;;;0.40;0.17;;;9.60;97.30;;;;;;4186099;28;20040;-65
2024/04/17 02:13:57;;;;;;;1.30;0.38;;;9.50;97.00;;;;;;4197012;28;20048;-63
2024/04/17 02:16:00;;;;;;;0.40;0.20;;;9.50;96.80;;;;;;4189283;28;20056;-62
2024/04/17 02:18:01;;;;;;;1.80;0.43;;;9.50;97.00;;;;;;4207898;28;20048;-62
2024/04/17 02:20:05;;;;;;;0.55;0.38;;;9.50;96.90;;;;;;4195187;28;20049;-63
2024/04/17 02:22:06;;;;;;;1.45;0.30;;;9.50;96.80;;;;;;4185124;28;20056;-63
2024/04/17 02:24:07;;;;;;;0.22;0.17;;;9.50;96.80;;;;;;4196200;28;20052;-62
2024/04/17 02:26:08;;;;;;;0.73;0.28;;;9.40;96.90;;;;;;4191549;28;20430;-62
2024/04/17 02:28:09;;;;;;;0.65;0.60;;;9.30;96.80;;;;;;4189594;28;20047;-62
2024/04/17 02:30:12;;;;;;;0.25;0.20;;;9.30;96.70;;;;;;4179808;28;20067;-62
2024/04/17 02:32:14;;;;;;;0.43;0.32;;;9.40;96.80;;;;;;4194525;28;20048;-62
2024/04/17 02:34:15;;;;;;;0.35;0.30;;;9.40;96.90;;;;;;4180044;28;20060;-62
2024/04/17 02:36:17;;;;;;;0.55;0.40;;;9.40;97.00;;;;;;4183282;28;20483;-63
2024/04/17 02:38:18;;;;;;;0.90;0.40;;;9.40;97.00;;;;;;4188148;28;20135;-62
2024/04/17 02:40:19;;;;;;;0.47;0.20;;;9.40;96.90;;;;;;4179815;28;20041;-63
2024/04/17 02:42:20;;;;;;;1.17;0.40;;;9.40;97.10;;;;;;4191177;28;20044;-63
2024/04/17 02:44:21;;;;;;;0.73;0.32;;;9.40;96.60;;;;;;4180725;28;20040;-63
2024/04/17 02:46:24;;;;;;;0.85;0.20;;;9.40;96.80;;;;;;4181371;28;20040;-64
2024/04/17 02:48:25;;;;;;;0.52;0.52;;;9.40;96.90;;;;;;4190132;28;20056;-63
2024/04/17 02:50:26;;;;;;;0.17;0.13;;;9.40;96.90;;;;;;4179804;28;20433;-62
2024/04/17 02:52:27;;;;;;;0.30;0.20;;;9.40;97.10;;;;;;4188970;28;20070;-62
2024/04/17 02:54:28;;;;;;;0.20;0.20;;;9.30;96.70;;;;;;4182845;28;20045;-63
2024/04/17 02:56:29;;;;;;;2.75;0.20;;;9.30;96.80;;;;;;4180834;28;20041;-63
2024/04/17 02:58:30;;;;;;;0.20;0.20;;;9.40;97.20;;;;;;4173375;28;20057;-62
2024/04/17 03:00:32;;;;;;;0.13;0.13;;;9.40;96.90;;;;;;4179156;28;20064;-62
2024/04/17 03:02:34;;;;;;;0.10;0.10;;;9.40;96.80;;;;;;4186659;28;20098;-62
2024/04/17 03:04:35;;;;;;;1.02;0.35;;;9.40;96.90;;;;;;4184106;28;20041;-63
2024/04/17 03:06:36;;;;;;;0.98;0.85;;;9.40;96.70;;;;;;4180737;28;20094;-62
2024/04/17 03:08:38;;;;;;;0.30;0.25;;;9.40;96.60;;;;;;4190187;28;20044;-62
2024/04/17 03:10:39;;;;;;;0.20;0.20;;;9.40;96.60;;;;;;4179304;28;20056;-62
2024/04/17 03:12:40;;;;;;;0.47;0.20;;;9.40;96.70;;;;;;4184796;28;20045;-62
2024/04/17 03:14:41;;;;;;;1.27;0.57;;;9.40;96.60;;;;;;4185754;28;20399;-62
2024/04/17 03:16:42;;;;;;;0.20;0.17;;;9.40;96.60;;;;;;4179091;28;20087;-62
2024/04/17 03:18:45;;;;;;;2.67;0.40;;;9.40;96.80;;;;;;4191495;28;20044;-62
2024/04/17 03:20:46;;;;;;;0.30;0.20;;;9.40;96.60;;;;;;4179473;28;20045;-62
2024/04/17 03:22:50;;;;;;;0.20;0.10;;;9.40;96.70;;;;;;4186373;28;20064;-62
2024/04/17 03:24:51;;;;;;;1.40;0.17;;;9.30;96.80;;;;;;4187696;28;20047;-62
2024/04/17 03:26:54;;;;;;;0.22;0.20;;;9.30;96.60;;;;;;4179007;28;20049;-62
2024/04/17 03:28:55;;;;;;;0.52;0.20;;;9.40;96.80;;;;;;4190480;28;20118;-63
2024/04/17 03:30:59;;;;;;;0.63;0.20;;;9.40;96.50;;;;;;4179815;28;20423;-61
2024/04/17 03:33:00;;;;;;;0.20;0.10;;;9.50;96.80;;;;;;4169002;28;20044;-62
2024/04/17 03:35:03;;;;;;;0.03;0.03;;;9.50;96.60;;;;;;4188875;28;20048;-63
2024/04/17 03:37:04;;;;;;;0.40;0.30;;;9.50;96.40;;;;;;4179054;28;20049;-62
2024/04/17 03:39:05;;;;;;;0.60;0.17;;;9.50;96.60;;;;;;4188898;28;20056;-62
2024/04/17 03:41:06;;;;;;;0.52;0.35;;;9.40;96.60;;;;;;4178923;28;20041;-62
2024/04/17 03:43:07;;;;;;;0.30;0.30;;;9.40;96.60;;;;;;4180257;28;20049;-64
2024/04/17 03:45:09;;;;;;;1.98;0.70;;;9.30;96.20;;;;;;4189981;28;20048;-62
2024/04/17 03:47:10;;;;;;;0.50;0.50;;;9.30;96.40;;;;;;4178841;28;20399;-61
2024/04/17 03:49:11;;;;;;;0.30;0.20;;;9.30;96.40;;;;;;4186698;28;20425;-62
2024/04/17 03:51:13;;;;;;;0.52;0.52;;;9.20;96.30;;;;;;4183363;28;20053;-62
2024/04/17 03:53:14;;;;;;;1.55;0.30;;;9.20;96.60;;;;;;4180209;28;20053;-62
2024/04/17 03:55:16;;;;;;;0.70;0.30;;;9.30;96.80;;;;;;4189818;28;20048;-62
2024/04/17 03:57:17;;;;;;;0.65;0.25;;;9.30;96.60;;;;;;4178729;28;20044;-63
2024/04/17 03:59:18;;;;;;;0.40;0.30;;;9.20;96.40;;;;;;4184482;28;20055;-62
2024/04/17 04:01:19;;;;;;;0.50;0.32;;;9.20;96.80;;;;;;4185314;28;20052;-62
2024/04/17 04:03:20;;;;;;;1.08;0.75;;;9.30;96.80;;;;;;4179185;28;20454;-62
2024/04/17 04:05:21;;;;;;;0.50;0.40;;;9.20;96.70;;;;;;4190686;28;20053;-62
2024/04/17 04:07:24;;;;;;;0.20;0.20;;;9.30;96.60;;;;;;4178778;28;20056;-62
2024/04/17 04:09:25;;;;;;;0.55;0.17;;;9.20;96.30;;;;;;4182986;28;20045;-63
2024/04/17 04:11:26;;;;;;;4.85;0.20;;;9.20;96.40;;;;;;4190260;28;20041;-63
2024/04/17 04:13:27;;;;;;;0.55;0.40;;;9.20;96.40;;;;;;4181641;28;20041;-63
2024/04/17 04:15:28;;;;;;;0.20;0.13;;;9.20;96.50;;;;;;4193569;28;20044;-62
2024/04/17 04:17:29;;;;;;;1.83;0.73;;;9.20;96.30;;;;;;4182921;28;20107;-63
2024/04/17 04:19:32;;;;;;;0.52;0.50;;;9.10;96.50;;;;;;4183953;28;20063;-63
2024/04/17 04:21:33;;;;;;;1.08;0.30;;;9.10;96.40;;;;;;4192355;28;20108;-63
2024/04/17 04:23:35;;;;;;;0.30;0.17;;;9.20;96.90;;;;;;4195115;28;20060;-63
2024/04/17 04:25:36;;;;;;;3.90;0.57;;;9.20;97.00;;;;;;4194352;28;20537;-63
2024/04/17 04:27:37;;;;;;;0.25;0.20;;;9.30;96.80;;;;;;4184270;28;20045;-63
2024/04/17 04:29:39;;;;;;;5.72;2.83;;;9.30;96.60;;;;;;4183220;28;20510;-62
2024/04/17 04:31:40;;;;;;;0.68;0.20;;;9.30;96.40;;;;;;4197656;28;20044;-63
2024/04/17 04:33:41;;;;;;;0.47;0.47;;;9.40;96.50;;;;;;4214987;28;20044;-63
2024/04/17 04:35:42;;;;;;;0.30;0.30;;;9.40;96.60;;;;;;4186020;28;20425;-62
2024/04/17 04:37:44;;;;;;;0.20;0.20;;;9.40;96.80;;;;;;4193739;28;20102;-63
2024/04/17 04:39:46;;;;;;;0.10;0.10;;;9.50;96.70;;;;;;4182798;28;20049;-63
2024/04/17 04:41:47;;;;;;;0.80;0.20;;;9.50;96.30;;;;;;4192515;28;20126;-63
2024/04/17 04:43:49;;;;;;;0.20;0.20;;;9.50;96.30;;;;;;4181603;28;20049;-63
2024/04/17 04:45:50;;;;;;;0.70;0.70;;;9.50;96.40;;;;;;4187301;28;20049;-62
2024/04/17 04:47:51;;;;;;;1.35;0.50;;;9.50;96.40;;;;;;4187952;28;20106;-62
2024/04/17 04:49:52;;;;;;;0.20;0.10;;;9.50;96.30;;;;;;4181869;28;20479;-62
2024/04/17 04:51:53;;;;;;;0.32;0.10;;;9.50;96.50;;;;;;4193640;28;20049;-63
2024/04/17 04:53:55;;;;;;;0.60;0.60;;;9.60;96.60;;;;;;4181478;28;20045;-62
2024/04/17 04:55:58;;;;;;;0.82;0.28;;;9.60;96.10;;;;;;4184686;28;20064;-63
2024/04/17 04:57:59;;;;;;;0.20;0.20;;;9.70;96.30;;;;;;4189109;28;20049;-63
2024/04/17 05:00:00;;;;;;;2.63;0.25;;;9.70;96.40;;;;;;4181347;28;20053;-62
2024/04/17 05:02:02;;;;;;;2.25;0.82;;;9.70;96.10;;;;;;4192870;28;20048;-63
2024/04/17 05:04:03;;;;;;;0.40;0.20;;;9.80;96.30;;;;;;4181921;28;20106;-62
2024/04/17 05:06:05;;;;;;;0.40;0.20;;;9.80;96.50;;;;;;4183156;28;20495;-62
2024/04/17 05:08:06;;;;;;;0.82;0.30;;;9.80;96.50;;;;;;4191427;28;20041;-62
2024/04/17 05:10:07;;;;;;;1.75;1.13;;;9.80;96.70;;;;;;4181451;28;20063;-63
2024/04/17 05:12:10;;;;;;;0.82;0.65;;;9.80;96.60;;;;;;4190310;28;20044;-63
2024/04/17 05:14:11;;;;;;;0.70;0.28;;;9.70;96.30;;;;;;4183702;28;20127;-63
2024/04/17 05:16:12;;;;;;;0.98;0.73;;;9.70;96.40;;;;;;4182239;28;20049;-62
2024/04/17 05:18:13;;;;;;;0.50;0.25;;;9.70;96.30;;;;;;4175681;28;20532;-63
2024/04/17 05:20:14;;;;;;;0.22;0.10;;;9.70;96.40;;;;;;4181210;28;20041;-62
2024/04/17 05:22:16;;;;;;;1.25;0.65;;;9.60;96.50;;;;;;4187771;28;20048;-63
2024/04/17 05:24:17;;;;;;;0.20;0.20;;;9.60;96.60;;;;;;4197275;28;20110;-62
2024/04/17 05:26:18;;;;;;;0.35;0.28;;;9.70;96.40;;;;;;4195585;28;20040;-62
2024/04/17 05:28:20;;;;;;;0.20;0.20;;;9.70;96.50;;;;;;4169672;28;20507;-63
2024/04/17 05:30:21;;;;;;;1.05;0.28;;;9.80;96.70;;;;;;4197533;28;20045;-63
2024/04/17 05:32:22;;;;;;;0.52;0.17;;;9.80;96.50;;;;;;4190893;28;20048;-63
2024/04/17 05:34:24;;;;;;;0.50;0.50;;;9.80;96.50;;;;;;4187330;28;20056;-62
2024/04/17 05:36:25;;;;;;;4.57;1.38;;;9.70;96.40;;;;;;4180832;28;20084;-62
2024/04/17 05:38:26;;;;;;;0.22;0.13;;;9.70;96.60;;;;;;4193090;28;20437;-63
2024/04/17 05:40:27;;;;;;;2.65;0.45;;;9.70;96.80;;;;;;4180639;28;20091;-62
2024/04/17 05:42:29;;;;;;;1.65;0.80;;;9.80;97.10;;;;;;4165621;28;20453;-63
2024/04/17 05:44:31;;;;;;;0.52;0.25;;;9.80;96.60;;;;;;4188495;28;20490;-62
2024/04/17 05:46:32;;;;;;;0.43;0.10;;;9.60;96.20;;;;;;4197283;28;20068;-63
2024/04/17 05:48:34;;;;;;;0.43;0.30;;;9.70;96.80;;;;;;4185519;28;20044;-61
2024/04/17 05:50:37;;;;;;;0.20;0.20;;;9.80;96.90;;;;;;4196475;28;20511;-61
2024/04/17 05:52:38;;;;;;;0.47;0.30;;;9.90;96.70;;;;;;4161561;28;20172;-62
2024/04/17 05:54:39;;;;;;;0.15;0.15;;;9.90;96.70;;;;;;4187201;28;20049;-63
2024/04/17 05:56:40;;;;;;;0.20;0.20;;;9.90;96.30;;;;;;4197578;28;20048;-62
2024/04/17 05:58:42;;;;;;;0.20;0.20;;;9.90;96.70;;;;;;4187383;28;20087;-64
2024/04/17 06:00:44;;;;;;;1.38;0.40;;;9.90;96.40;;;;;;4194822;28;20106;-64
2024/04/17 06:02:45;;;;;;;0.28;0.25;;;9.90;96.20;;;;;;4195777;28;20100;-63
2024/04/17 06:04:47;;;;;;;0.38;0.30;;;9.90;96.00;;;;;;4185521;28;20044;-63
2024/04/17 06:06:48;;;;;;;0.22;0.20;;;9.90;96.70;;;;;;4196803;28;20053;-62
2024/04/17 06:08:49;;;;;;;0.30;0.30;;;9.90;96.40;;;;;;4188491;28;20048;-66
2024/04/17 06:10:50;;;;;;;1.35;0.63;;;9.90;96.40;;;;;;4192172;28;20435;-67
2024/04/17 06:12:51;;;;;;;0.30;0.30;;;10.00;96.40;;;;;;4195257;28;20044;-62
2024/04/17 06:14:53;;;;;;;1.13;0.60;;;10.00;96.50;;;;;;4185515;28;20053;-63
2024/04/17 06:16:55;;;;;;;0.50;0.30;;;10.00;96.30;;;;;;4196596;28;20438;-63
2024/04/17 06:18:56;;;;;;;0.20;0.20;;;9.90;96.10;;;;;;4190399;28;20200;-65
2024/04/17 06:20:57;;;;;;;0.95;0.55;;;10.00;96.00;;;;;;4190307;28;20049;-63
2024/04/17 06:22:58;;;;;;;0.10;0.10;;;10.00;96.20;;;;;;4195786;28;20048;-63
2024/04/17 06:24:59;;;;;;;0.30;0.30;;;10.00;96.10;;;;;;4191317;28;20044;-67
2024/04/17 06:27:02;;;;;;;0.35;0.28;;;10.00;96.10;;;;;;4180216;28;20432;-63
2024/04/17 06:29:03;;;;;;;0.10;0.10;;;10.10;95.60;;;;;;4183973;28;20041;-66
2024/04/17 06:31:04;;;;;;;3.13;0.85;;;10.10;95.50;;;;;;4188282;28;20049;-63
2024/04/17 06:33:06;;;;;;;0.10;0.10;;;10.00;95.00;;;;;;4180283;28;20123;-63
2024/04/17 06:35:08;;;;;;;3.97;1.02;;;10.10;95.00;;;;;;4191494;28;20497;-63
2024/04/17 06:37:09;;;;;;;0.30;0.28;;;9.80;94.70;;;;;;4180960;28;20099;-62
2024/04/17 06:39:10;;;;;;;0.22;0.10;;;9.80;95.00;;;;;;4181772;28;20048;-67
2024/04/17 06:41:11;;;;;;;1.25;0.68;;;10.00;95.60;;;;;;4187524;28;20052;-62
2024/04/17 06:43:12;;;;;;;0.60;0.28;;;10.10;95.20;;;;;;4196889;28;20540;-62
2024/04/17 06:45:13;;;;;;;0.47;0.47;;;10.10;94.90;;;;;;4169954;28;20450;-62
2024/04/17 06:47:15;;;;;;;0.90;0.25;;;10.30;95.10;;;;;;4193397;28;20044;-63
2024/04/17 06:49:17;;;;;;;0.10;0.10;;;10.20;94.20;;;;;;4194728;28;20045;-62
2024/04/17 06:51:18;;;;;;;0.90;0.17;;;10.40;95.10;;;;;;4184678;28;20040;-62
2024/04/17 06:53:20;;;;;;;0.63;0.28;;;10.40;94.80;;;;;;4195937;28;20082;-62
2024/04/17 06:55:21;;;;;;;0.32;0.20;;;10.60;94.40;;;;;;4188131;28;20045;-63
2024/04/17 06:57:22;;;;;;;0.57;0.30;;;10.50;94.20;;;;;;4174862;28;20086;-63
2024/04/17 06:59:23;;;;;;;1.05;0.30;;;10.70;94.30;;;;;;4178027;28;20041;-62
2024/04/17 07:01:24;;;;;;;0.57;0.32;;;10.80;94.30;;;;;;4185192;28;20045;-66
2024/04/17 07:03:25;;;;;;;0.38;0.20;;;10.80;93.80;;;;;;4195871;28;20051;-63
2024/04/17 07:05:28;;;;;;;0.40;0.30;;;10.90;93.70;;;;;;4201482;28;20036;-64
2024/04/17 07:07:29;;;;;;;1.65;0.22;;;10.90;94.00;;;;;;4202251;28;20383;-63
2024/04/17 07:09:30;;;;;;;0.20;0.20;;;11.00;94.40;;;;;;4195579;28;20044;-63
2024/04/17 07:11:32;;;;;;;0.15;0.15;;;11.00;93.10;;;;;;4183683;28;20045;-63
2024/04/17 07:13:34;;;;;;;0.57;0.50;;;11.00;94.00;;;;;;4196151;28;20551;-63
2024/04/17 07:15:35;;;;;;;0.25;0.22;;;11.00;93.80;;;;;;4191681;28;20036;-63
2024/04/17 07:17:37;;;;;;;1.70;0.35;;;11.20;93.50;;;;;;4187576;28;20052;-62
2024/04/17 07:19:38;;;;;;;0.70;0.20;;;11.20;93.40;;;;;;4196162;28;20055;-62
2024/04/17 07:21:40;;;;;;;0.30;0.20;;;11.40;92.60;;;;;;4191243;28;20046;-62
2024/04/17 07:23:43;;;;;;;1.08;0.45;;;11.40;92.70;;;;;;4194068;28;20060;-62
2024/04/17 07:25:45;;;;;;;0.47;0.32;;;11.40;92.50;;;;;;4191263;28;20124;-63
2024/04/17 07:27:46;;;;;;;4.65;0.30;;;11.40;92.00;;;;;;4189711;28;20056;-63
2024/04/17 07:29:47;;;;;;;0.10;0.10;;;11.30;91.80;;;;;;4180593;28;20045;-63
2024/04/17 07:31:49;;;;;;;0.35;0.20;;;11.30;91.80;;;;;;4194144;28;20045;-70
2024/04/17 07:33:50;;;;;;;0.93;0.68;;;11.10;92.00;;;;;;4179750;28;20417;-63
2024/04/17 07:35:58;;;;;;;1.30;0.57;;;11.00;91.80;;;;;;4192117;28;20060;-63
2024/04/17 07:38:00;;;;;;;0.60;0.50;;;11.20;91.90;;;;;;4190058;28;20090;-63
2024/04/17 07:40:01;;;;;;;0.50;0.28;;;11.30;91.30;;;;;;4179265;28;20495;-63
2024/04/17 07:42:03;;;;;;;3.13;0.20;;;11.40;91.10;;;;;;4187733;28;20044;-63
2024/04/17 07:44:04;;;;;;;0.38;0.20;;;11.70;90.80;;;;;;4182708;28;20049;-63
2024/04/17 07:46:05;;;;;;;0.15;0.15;;;12.10;90.30;;;;;;4186150;28;20048;-65
2024/04/17 07:48:07;;;;;;;0.75;0.63;;;12.20;90.00;;;;;;4196492;28;20098;-63
2024/04/17 07:50:08;;;;;;;0.30;0.20;;;12.00;90.00;;;;;;4184515;28;20121;-63
2024/04/17 07:52:09;;;;;;;3.53;0.77;;;11.80;90.00;;;;;;4191857;28;20098;-64
2024/04/17 07:54:11;;;;;;;0.30;0.28;;;11.60;90.60;;;;;;4190060;28;20048;-63
2024/04/17 07:56:12;;;;;;;0.52;0.20;;;11.60;90.80;;;;;;4202502;28;20048;-63
2024/04/17 07:58:14;;;;;;;0.52;0.20;;;12.00;90.70;;;;;;4195708;28;20509;-63
2024/04/17 08:00:18;;;;;;;0.30;0.30;;;12.00;90.10;;;;;;4184727;28;20045;-63
2024/04/17 08:02:19;;;;;;;2.85;0.40;;;12.00;89.90;;;;;;4189683;28;20040;-63
2024/04/17 08:04:20;;;;;;;0.30;0.20;;;12.10;90.20;;;;;;4191569;28;20053;-63
2024/04/17 08:06:21;;;;;;;1.50;0.95;;;12.10;89.80;;;;;;4184008;28;20064;-64
2024/04/17 08:08:23;;;;;;;0.10;0.10;;;12.20;90.60;;;;;;4197033;28;20256;-63
2024/04/17 08:10:25;;;;;;;0.20;0.20;;;12.50;90.60;;;;;;4184803;28;20059;-63
2024/04/17 08:12:26;;;;;;;1.70;0.60;;;12.70;89.50;;;;;;4187913;28;20178;-63
2024/04/17 08:14:27;;;;;;;0.25;0.20;;;13.00;89.50;;;;;;4200727;28;20040;-63
2024/04/17 08:16:28;;;;;;;0.10;0.10;;;13.30;90.40;;;;;;4184104;28;20091;-63
2024/04/17 08:18:30;;;;;;;0.30;0.17;;;13.30;88.80;;;;;;4189684;28;20048;-63
2024/04/17 08:20:31;;;;;;;0.15;0.15;;;13.40;87.50;;;;;;4175797;28;20045;-64
2024/04/17 08:22:32;;;;;;;0.52;0.50;;;13.50;88.10;;;;;;4196227;28;20044;-64
2024/04/17 08:24:33;;;;;;;0.52;0.15;;;13.60;86.30;;;;;;4190083;28;20082;-64
2024/04/17 08:26:35;;;;;;;0.40;0.40;;;13.70;87.00;;;;;;4193749;28;20041;-64
2024/04/17 08:28:37;;;;;;;0.43;0.43;;;13.80;86.70;;;;;;4193549;28;20040;-64
2024/04/17 08:30:38;;;;;;;0.17;0.17;;;13.80;85.50;;;;;;4189740;28;20040;-65
2024/04/17 08:32:42;;;;;;;0.32;0.32;;;13.90;85.10;;;;;;4185265;28;20053;-65
2024/04/17 08:34:43;;;;;;;5.72;0.20;;;14.00;84.50;;;;;;4199661;28;20513;-64
2024/04/17 08:36:44;;;;;;;0.20;0.20;;;13.90;81.10;;;;;;4200747;28;20041;-64
2024/04/17 08:38:45;;;;;;;0.50;0.17;;;13.90;83.30;;;;;;4200067;28;20044;-64
2024/04/17 08:40:47;;;;;;;1.00;0.88;;;13.90;83.50;;;;;;4188916;28;20102;-66
2024/04/17 08:42:51;;;;;;;0.40;0.15;;;13.90;82.60;;;;;;4184588;28;20045;-65
2024/04/17 08:44:52;;;;;;;1.05;0.17;;;13.80;81.80;;;;;;4190357;28;20051;-64
2024/04/17 08:46:55;;;;;;;0.10;0.10;;;13.80;83.50;;;;;;4198341;28;20040;-64
2024/04/17 08:48:57;;;;;;;0.47;0.10;;;13.90;83.60;;;;;;4194761;28;20044;-64
2024/04/17 08:50:58;;;;;;;1.10;0.10;;;13.80;82.60;;;;;;4198891;28;20052;-64
2024/04/17 08:53:02;;;;;;;1.75;0.90;;;13.80;81.50;;;;;;4200377;28;20524;-64
2024/04/17 08:55:04;;;;;;;0.28;0.10;;;13.90;83.40;;;;;;4195170;28;20063;-64
2024/04/17 08:57:05;;;;;;;0.35;0.32;;;14.10;81.90;;;;;;4192828;28;20045;-64
2024/04/17 08:59:09;;;;;;;0.90;0.73;;;14.00;80.70;;;;;;4194126;28;20448;-63
2024/04/17 09:01:11;;;;;;;1.70;1.00;;;13.80;80.20;;;;;;4189175;28;20422;-64
2024/04/17 09:03:19;;;;;;;6.00;1.52;;;13.70;80.10;;;;;;4187995;28;20051;-64
2024/04/17 09:05:27;;;;;;;0.80;0.63;;;13.70;80.70;;;;;;4193203;28;20240;-64
2024/04/17 09:07:28;;;;;;;0.03;0.00;;;13.70;80.30;;;;;;4181772;28;20056;-65
2024/04/17 09:09:30;;;;;;;1.27;0.40;;;13.70;80.80;;;;;;4186414;28;20040;-64
2024/04/17 09:11:32;;;;;;;0.40;0.13;;;13.80;80.60;;;;;;4188531;28;20041;-63
2024/04/17 09:13:33;;;;;;;2.75;1.00;;;13.80;80.50;;;;;;4194270;28;20435;-63
2024/04/17 09:15:36;;;;;;;0.10;0.10;;;13.90;81.10;;;;;;4168039;28;20049;-63
2024/04/17 09:17:37;;;;;;;0.73;0.20;;;13.90;77.10;;;;;;4181085;28;20068;-64
2024/04/17 09:19:38;;;;;;;0.95;0.47;;;13.80;79.90;;;;;;4171976;28;20103;-64
2024/04/17 09:21:39;;;;;;;1.90;0.17;;;13.90;81.90;;;;;;4190055;28;20052;-65
2024/04/17 09:23:40;;;;;;;0.30;0.30;;;13.90;78.20;;;;;;4194914;28;20099;-64
2024/04/17 09:25:44;;;;;;;2.72;0.40;;;13.90;79.20;;;;;;4183837;28;20517;-64
2024/04/17 09:27:46;;;;;;;0.77;0.30;;;14.00;81.40;;;;;;4196125;28;20055;-64
2024/04/17 09:29:47;;;;;;;0.45;0.20;;;14.20;81.00;;;;;;4179110;28;20049;-64
2024/04/17 09:31:49;;;;;;;0.30;0.10;;;14.10;77.20;;;;;;4182406;28;20041;-67
2024/04/17 09:33:51;;;;;;;0.20;0.20;;;13.90;77.60;;;;;;4186944;28;20075;-65
2024/04/17 09:35:52;;;;;;;0.77;0.20;;;13.90;80.60;;;;;;4176870;28;20075;-65
2024/04/17 09:37:54;;;;;;;1.35;0.17;;;13.80;79.20;;;;;;4195151;28;20048;-64
2024/04/17 09:40:02;;;;;;;0.63;0.38;;;13.90;81.10;;;;;;4194235;28;20403;-64
2024/04/17 09:42:07;;;;;;;0.52;0.20;;;14.20;80.00;;;;;;4191804;28;20063;-64
2024/04/17 09:44:12;;;;;;;0.03;0.03;;;14.10;78.60;;;;;;4180596;28;20419;-64
2024/04/17 09:46:14;;;;;;;0.10;0.10;;;14.00;77.00;;;;;;4190081;28;20044;-64
2024/04/17 09:48:17;;;;;;;2.97;0.77;;;13.90;76.40;;;;;;4196487;28;20082;-63
2024/04/17 09:50:25;;;;;;;0.43;0.10;;;13.80;76.90;;;;;;4178521;28;20037;-65
2024/04/17 09:52:27;;;;;;;1.27;0.52;;;13.90;76.60;;;;;;4174989;28;20041;-65
2024/04/17 09:54:29;;;;;;;0.55;0.30;;;13.90;76.50;;;;;;4188029;28;20048;-65
2024/04/17 09:56:32;;;;;;;0.55;0.55;;;14.10;78.20;;;;;;4196674;28;20480;-64
2024/04/17 09:58:34;;;;;;;0.40;0.30;;;14.20;75.60;;;;;;4190135;28;20105;-67
2024/04/17 10:00:37;;;;;;;1.45;0.88;;;14.40;77.20;;;;;;4182809;28;20047;-65
2024/04/17 10:02:38;;;;;;;0.93;0.20;;;14.50;76.10;;;;;;4191343;28;20045;-65
2024/04/17 10:04:44;;;;;;;0.20;0.13;;;14.60;76.20;;;;;;4180015;28;20041;-65
2024/04/17 10:06:46;;;;;;;1.35;0.22;;;14.60;76.90;;;;;;4187832;28;20048;-64
2024/04/17 10:08:49;;;;;;;4.80;0.30;;;14.60;76.80;;;;;;4183885;28;20181;-64
2024/04/17 10:10:52;;;;;;;1.65;0.85;;;14.70;77.40;;;;;;4177744;28;20048;-65
2024/04/17 10:12:54;;;;;;;1.67;0.20;;;14.80;76.30;;;;;;4194213;28;20094;-65
2024/04/17 10:14:57;;;;;;;2.13;0.73;;;14.80;75.60;;;;;;4179866;28;20045;-64
2024/04/17 10:16:58;;;;;;;0.30;0.22;;;14.80;76.20;;;;;;4182372;28;20099;-65
2024/04/17 10:18:59;;;;;;;0.35;0.35;;;14.90;75.70;;;;;;4181853;28;20076;-65
2024/04/17 10:21:02;;;;;;;0.30;0.10;;;14.70;75.00;;;;;;4182122;28;20045;-64
2024/04/17 10:23:06;;;;;;;0.77;0.20;;;14.80;74.90;;;;;;4189589;28;20041;-64
2024/04/17 10:25:08;;;;;;;0.40;0.30;;;14.90;75.40;;;;;;4195104;28;20048;-64
2024/04/17 10:27:16;;;;;;;9.73;1.85;;;15.10;75.40;;;;;;4190214;28;20044;-64
2024/04/17 10:29:21;;;;;;;0.30;0.30;;;15.10;74.80;;;;;;4191302;28;20068;-66
2024/04/17 10:31:31;;;;;;;0.98;0.30;;;15.20;73.50;;;;;;4191596;28;20048;-65
2024/04/17 10:33:34;;;;;;;1.15;0.20;;;15.30;73.20;;;;;;4193267;28;20045;-66
2024/04/17 10:35:41;;;;;;;0.15;0.15;;;15.40;71.10;;;;;;4179380;28;20064;-65
2024/04/17 10:37:47;;;;;;;0.43;0.28;;;15.40;72.70;;;;;;4188079;28;20049;-64